Cosco Kaohsiung — VREM3 — position and weather

sailwx.info

Track history (hours):
 
Tides and Currents Weather Stations Pressure Air Temp Water Temp Dewpoint Dewpoint Depression Visibility Wind Speed Wind Dir Waves Ship Positions

Cosco Kaohsiung

Last reported at 2014-Jul-24 10:33 UTC. Time now 2014-Jul-24 10:44 UTC.
Position N 37°45' W 122°39'.

Length 349 m; draft 9.3 m.

Type: Ship (hazmat cat A). MMSI: 477136800.

Date/timePositionNaut miles runAvg speedWind from/ knotsBaromVisibWave heightAir tempDewpointWater temp
2014-Jul-24 10:33N 37°45' W 122°39'1111.4
2014-Jul-24 09:33N 37°38' W 122°51'1414.2
2014-Jul-24 08:33N 37°28' W 123°03'1313.2
2014-Jul-24 07:33N 37°15' W 123°02'1514.8
2014-Jul-24 06:33N 37°01' W 122°54'1515.2
2014-Jul-24 05:33N 36°47' W 122°46'1515.1
2014-Jul-24 04:33N 36°34' W 122°39'1414.3
2014-Jul-24 03:34N 36°20' W 122°32'1414.1
2014-Jul-24 02:33N 36°08' W 122°24'1414.4
2014-Jul-24 01:33N 35°54' W 122°17'1514.5
2014-Jul-24 00:33N 35°41' W 122°09'1514.5
2014-Jul-23 23:33N 35°29' W 122°00'1514.6
2014-Jul-23 22:33N 35°17' W 121°50'1515.0
2014-Jul-23 21:33N 35°04' W 121°40'1515.0
2014-Jul-23 20:33N 34°52' W 121°29'1514.7
2014-Jul-23 19:32N 34°40' W 121°19'1512.1
2014-Jul-23 18:18N 34°29' W 121°06'4010.6
2014-Jul-23 14:31N 34°19' W 120°19'1010.1
2014-Jul-23 13:34N 34°16' W 120°08'1110.8
2014-Jul-23 12:34N 34°13' W 119°55'1110.9
2014-Jul-23 11:33N 34°11' W 119°42'9 9.4
2014-Jul-23 10:34N 34°08' W 119°31'9 9.3
2014-Jul-23 09:34N 34°05' W 119°21'10 9.5
2014-Jul-23 08:33N 34°02' W 119°10'9 9.5
2014-Jul-23 07:33N 33°57' W 119°00'9 9.3
2014-Jul-23 06:33N 33°52' W 118°50'10 9.9
2014-Jul-23 05:34N 33°47' W 118°40'10 9.6
2014-Jul-23 04:34N 33°43' W 118°30'10 9.7
2014-Jul-23 03:33N 33°38' W 118°20'8 7.7
2014-Jul-23 02:33N 33°42' W 118°11'2 2.3
2014-Jul-23 01:33N 33°44' W 118°12'0 0.0
2014-Jul-23 00:33N 33°44' W 118°12'0 0.0
2014-Jul-22 23:33N 33°44' W 118°12'0 0.0
2014-Jul-22 22:33N 33°44' W 118°12'0 0.0
2014-Jul-22 21:33N 33°44' W 118°12'0 0.0
2014-Jul-22 20:33N 33°44' W 118°12'0 0.0
2014-Jul-22 19:33N 33°44' W 118°12'0 0.0
2014-Jul-22 18:30N 33°44' W 118°12'0 0.0
2014-Jul-22 16:30N 33°44' W 118°12'0 0.0
2014-Jul-22 14:21N 33°44' W 118°12'0 0.0
2014-Jul-22 13:27N 33°44' W 118°12'0 0.0
2014-Jul-22 12:33N 33°44' W 118°12'0 0.0
2014-Jul-22 11:33N 33°44' W 118°12'0 0.0
2014-Jul-22 10:33N 33°44' W 118°12'0 0.0
2014-Jul-22 09:33N 33°44' W 118°12'0 0.0
2014-Jul-22 08:33N 33°44' W 118°12'0 0.0
2014-Jul-22 06:15N 33°44' W 118°12'0 0.0
2014-Jul-22 05:33N 33°44' W 118°12'0 0.0
2014-Jul-22 04:27N 33°44' W 118°12'0 0.0
2014-Jul-22 03:30N 33°44' W 118°12'0 0.0
2014-Jul-22 02:33N 33°44' W 118°12'0 0.1
2014-Jul-22 01:33N 33°44' W 118°12'0 0.0
2014-Jul-21 11:24N 33°44' W 118°12'0 0.0
2014-Jul-21 10:06N 33°44' W 118°12'0 0.0
2014-Jul-20 22:06N 33°44' W 118°12'0 0.0
2014-Jul-20 21:27N 33°44' W 118°12'0 0.0
2014-Jul-20 06:27N 33°44' W 118°12'0 0.0
2014-Jul-20 05:27N 33°44' W 118°12'0 0.0
2014-Jul-20 03:06N 33°44' W 118°12'0 0.0
2014-Jul-19 14:33N 33°44' W 118°12'0 0.0
2014-Jul-19 13:15N 33°44' W 118°12'0 0.0
2014-Jul-19 12:33N 33°44' W 118°12'3 2.8
2014-Jul-19 11:33N 33°41' W 118°11'6 5.8
2014-Jul-19 10:33N 33°37' W 118°15'8 7.6
2014-Jul-19 09:33N 33°36' W 118°24'8 8.3
2014-Jul-19 08:33N 33°36' W 118°34'9 8.9
2014-Jul-19 07:33N 33°37' W 118°44'1110.6
2014-Jul-19 06:33N 33°37' W 118°57'1110.8
2014-Jul-19 05:31N 33°37' W 119°11'1313.3
2014-Jul-19 04:33N 33°35' W 119°26'1414.0
2014-Jul-19 03:33N 33°32' W 119°42'1313.3
2014-Jul-19 02:33N 33°30' W 119°58'12014.6
2014-Jul-18 18:21N 34°05' W 122°16'2815.2
2014-Jul-18 16:32N 34°14' W 122°47'1715.0
2014-Jul-18 15:25N 34°19' W 123°07'3215.2
2014-Jul-18 13:19N 34°28' W 123°44'1415.1
2014-Jul-18 12:24N 34°32' W 124°01'1314.8
2014-Jul-18 11:30N 34°35' W 124°16'1614.9
2014-Jul-18 10:27N 34°40' W 124°34'1415.0
2014-Jul-18 09:30N 34°44' W 124°51'3515.0
2014-Jul-18 07:09N 34°53' W 125°32'915.0
2014-Jul-18 06:33N 34°56' W 125°43'1715.1
2014-Jul-18 05:24N 35°02' W 126°02'  
Track history (hours):
 
Tides and Currents Weather Stations Pressure Air Temp Water Temp Dewpoint Dewpoint Depression Visibility Wind Speed Wind Dir Waves Ship Positions

Cosco Kaohsiung

Last reported at 2014-Jul-24 10:33 UTC. Time now 2014-Jul-24 10:44 UTC.
Position N 37°45' W 122°39'.

Length 349 m; draft 9.3 m.

Type: Ship (hazmat cat A). MMSI: 477136800.

Date/timePositionNaut miles runAvg speedWind from/ knotsBaromVisibWave heightAir tempDewpointWater temp
2014-Jul-24 10:33N 37°45' W 122°39'1111.4
2014-Jul-24 09:33N 37°38' W 122°51'1414.2
2014-Jul-24 08:33N 37°28' W 123°03'1313.2
2014-Jul-24 07:33N 37°15' W 123°02'1514.8
2014-Jul-24 06:33N 37°01' W 122°54'1515.2
2014-Jul-24 05:33N 36°47' W 122°46'1515.1
2014-Jul-24 04:33N 36°34' W 122°39'1414.3
2014-Jul-24 03:34N 36°20' W 122°32'1414.1
2014-Jul-24 02:33N 36°08' W 122°24'1414.4
2014-Jul-24 01:33N 35°54' W 122°17'1514.5
2014-Jul-24 00:33N 35°41' W 122°09'1514.5
2014-Jul-23 23:33N 35°29' W 122°00'1514.6
2014-Jul-23 22:33N 35°17' W 121°50'1515.0
2014-Jul-23 21:33N 35°04' W 121°40'1515.0
2014-Jul-23 20:33N 34°52' W 121°29'1514.7
2014-Jul-23 19:32N 34°40' W 121°19'1512.1
2014-Jul-23 18:18N 34°29' W 121°06'4010.6
2014-Jul-23 14:31N 34°19' W 120°19'1010.1
2014-Jul-23 13:34N 34°16' W 120°08'1110.8
2014-Jul-23 12:34N 34°13' W 119°55'1110.9
2014-Jul-23 11:33N 34°11' W 119°42'9 9.4
2014-Jul-23 10:34N 34°08' W 119°31'9 9.3
2014-Jul-23 09:34N 34°05' W 119°21'10 9.5
2014-Jul-23 08:33N 34°02' W 119°10'9 9.5
2014-Jul-23 07:33N 33°57' W 119°00'9 9.3
2014-Jul-23 06:33N 33°52' W 118°50'10 9.9
2014-Jul-23 05:34N 33°47' W 118°40'10 9.6
2014-Jul-23 04:34N 33°43' W 118°30'10 9.7
2014-Jul-23 03:33N 33°38' W 118°20'8 7.7
2014-Jul-23 02:33N 33°42' W 118°11'2 2.3
2014-Jul-23 01:33N 33°44' W 118°12'0 0.0
2014-Jul-23 00:33N 33°44' W 118°12'0 0.0
2014-Jul-22 23:33N 33°44' W 118°12'0 0.0
2014-Jul-22 22:33N 33°44' W 118°12'0 0.0
2014-Jul-22 21:33N 33°44' W 118°12'0 0.0
2014-Jul-22 20:33N 33°44' W 118°12'0 0.0
2014-Jul-22 19:33N 33°44' W 118°12'0 0.0
2014-Jul-22 18:30N 33°44' W 118°12'0 0.0
2014-Jul-22 16:30N 33°44' W 118°12'0 0.0
2014-Jul-22 14:21N 33°44' W 118°12'0 0.0
2014-Jul-22 13:27N 33°44' W 118°12'0 0.0
2014-Jul-22 12:33N 33°44' W 118°12'0 0.0
2014-Jul-22 11:33N 33°44' W 118°12'0 0.0
2014-Jul-22 10:33N 33°44' W 118°12'0 0.0
2014-Jul-22 09:33N 33°44' W 118°12'0 0.0
2014-Jul-22 08:33N 33°44' W 118°12'0 0.0
2014-Jul-22 06:15N 33°44' W 118°12'0 0.0
2014-Jul-22 05:33N 33°44' W 118°12'0 0.0
2014-Jul-22 04:27N 33°44' W 118°12'0 0.0
2014-Jul-22 03:30N 33°44' W 118°12'0 0.0
2014-Jul-22 02:33N 33°44' W 118°12'0 0.1
2014-Jul-22 01:33N 33°44' W 118°12'0 0.0
2014-Jul-21 11:24N 33°44' W 118°12'0 0.0
2014-Jul-21 10:06N 33°44' W 118°12'0 0.0
2014-Jul-20 22:06N 33°44' W 118°12'0 0.0
2014-Jul-20 21:27N 33°44' W 118°12'0 0.0
2014-Jul-20 06:27N 33°44' W 118°12'0 0.0
2014-Jul-20 05:27N 33°44' W 118°12'0 0.0
2014-Jul-20 03:06N 33°44' W 118°12'0 0.0
2014-Jul-19 14:33N 33°44' W 118°12'0 0.0
2014-Jul-19 13:15N 33°44' W 118°12'0 0.0
2014-Jul-19 12:33N 33°44' W 118°12'3 2.8
2014-Jul-19 11:33N 33°41' W 118°11'6 5.8
2014-Jul-19 10:33N 33°37' W 118°15'8 7.6
2014-Jul-19 09:33N 33°36' W 118°24'8 8.3
2014-Jul-19 08:33N 33°36' W 118°34'9 8.9
2014-Jul-19 07:33N 33°37' W 118°44'1110.6
2014-Jul-19 06:33N 33°37' W 118°57'1110.8
2014-Jul-19 05:31N 33°37' W 119°11'1313.3
2014-Jul-19 04:33N 33°35' W 119°26'1414.0
2014-Jul-19 03:33N 33°32' W 119°42'1313.3
2014-Jul-19 02:33N 33°30' W 119°58'12014.6
2014-Jul-18 18:21N 34°05' W 122°16'2815.2
2014-Jul-18 16:32N 34°14' W 122°47'1715.0
2014-Jul-18 15:25N 34°19' W 123°07'3215.2
2014-Jul-18 13:19N 34°28' W 123°44'1415.1
2014-Jul-18 12:24N 34°32' W 124°01'1314.8
2014-Jul-18 11:30N 34°35' W 124°16'1614.9
2014-Jul-18 10:27N 34°40' W 124°34'1415.0
2014-Jul-18 09:30N 34°44' W 124°51'3515.0
2014-Jul-18 07:09N 34°53' W 125°32'915.0
2014-Jul-18 06:33N 34°56' W 125°43'1715.1
2014-Jul-18 05:24N 35°02' W 126°02'  

Dump ship's entire track history